Armington, Montana
Current Conditions -  °F | °C
As of 12:56 PM on Sunday 21 Dec 2014 (Local Time) from KGFA Reporting Station
Broken Clouds Broken Clouds  
Wind Chill:   Ceiling: 6500
Heat Index:   Visibility: 10mi
Dew Point: -3°   Wind: 21mph
Humidity: 47%   Direction: 250°WSW
Pressure: 29.45"   Gusts: 32mph
Location:  47.3298°N, 110.893°W
Report Text: KGFA 211956Z AUTO 25018G28KT 10SM BKN065 08/M03 A2945 RMK AO2 PK WND 26029/42 SLP989 T00791028
Loading
Personal Weather Stations






























Interactive Weather Map New forecast layout! Learn more

10-Day Weather Forecast

Advertisements
Track Severe Weather on mobile